Time;durP1;ratioP1;P1;durP2;ratioP2;P2;SDS_P1;SDS_P2;PMS_P1;PMS_P2;Temp;Humidity;BMP_temperature;BMP_pressure;BME280_temperature;BME280_humidity;BME280_pressure;Samples;Min_cycle;Max_cycle;Signal;HPM_P1;HPM_P2
2022/02/23 00:01:05;;;;;;;14.10;2.50;;;6.10;1.00;;;;;;5070445;28;20195;-70
2022/02/23 00:03:32;;;;;;;10.40;2.20;;;6.00;99.90;;;;;;5071584;28;20683;-70
2022/02/23 00:06:01;;;;;;;12.50;2.70;;;6.00;1.00;;;;;;5073195;28;20678;-70
2022/02/23 00:08:28;;;;;;;11.03;3.00;;;6.00;1.00;;;;;;5065897;28;20579;-70
2022/02/23 00:10:56;;;;;;;15.47;3.23;;;6.10;99.90;;;;;;5075863;28;20210;-70
2022/02/23 00:13:23;;;;;;;16.87;2.80;;;6.10;99.90;;;;;;5075352;28;20218;-70
2022/02/23 00:15:50;;;;;;;17.53;2.90;;;6.20;99.90;;;;;;5074640;28;20668;-71
2022/02/23 00:18:17;;;;;;;15.33;3.13;;;6.20;99.90;;;;;;5075081;28;20296;-71
2022/02/23 00:20:44;;;;;;;11.27;2.40;;;6.30;99.90;;;;;;5075532;28;20280;-71
2022/02/23 00:23:12;;;;;;;18.50;2.90;;;6.30;99.90;;;;;;5074348;28;20202;-70
2022/02/23 00:25:39;;;;;;;19.20;2.60;;;6.30;1.00;;;;;;5075615;28;20213;-71
2022/02/23 00:28:06;;;;;;;12.97;2.30;;;6.30;1.00;;;;;;5075481;28;20206;-71
2022/02/23 00:30:33;;;;;;;17.40;3.57;;;6.20;1.00;;;;;;5074062;28;20206;-71
2022/02/23 00:33:00;;;;;;;20.83;3.20;;;6.30;1.00;;;;;;5075045;28;20560;-71
2022/02/23 00:35:27;;;;;;;11.67;3.23;;;6.30;1.00;;;;;;5074847;28;20201;-70
2022/02/23 00:37:54;;;;;;;13.97;3.10;;;6.30;99.90;;;;;;5074729;28;20205;-70
2022/02/23 00:40:22;;;;;;;14.90;2.60;;;6.30;24.60;;;;;;5075315;28;20195;-70
2022/02/23 00:42:52;;;;;;;13.40;2.57;;;6.30;99.90;;;;;;5074457;28;20198;-70
2022/02/23 00:45:19;;;;;;;10.90;3.37;;;6.40;99.90;;;;;;5075326;28;20206;-71
2022/02/23 00:47:46;;;;;;;16.43;3.10;;;6.30;99.90;;;;;;5074012;28;20217;-71
2022/02/23 00:50:13;;;;;;;15.20;3.03;;;6.30;89.00;;;;;;5074436;28;20217;-71
2022/02/23 00:52:40;;;;;;;12.03;2.80;;;6.30;99.90;;;;;;5074663;28;20202;-71
2022/02/23 00:55:08;;;;;;;14.83;3.30;;;6.20;1.00;;;;;;5074442;28;20252;-71
2022/02/23 00:57:36;;;;;;;15.03;3.13;;;6.10;1.00;;;;;;5073967;28;20202;-70
2022/02/23 01:00:05;;;;;;;14.90;3.00;;;6.10;1.00;;;;;;5073435;28;20596;-71
2022/02/23 01:02:31;;;;;;;20.50;4.27;;;6.10;1.00;;;;;;5074067;28;20294;-70
2022/02/23 01:04:58;;;;;;;14.40;3.30;;;6.00;1.00;;;;;;5074339;28;20197;-70
2022/02/23 01:07:25;;;;;;;12.47;2.30;;;6.00;1.00;;;;;;5073901;28;20674;-70
2022/02/23 01:09:52;;;;;;;20.17;3.77;;;6.10;1.00;;;;;;5074012;28;20561;-71
2022/02/23 01:12:19;;;;;;;16.67;3.50;;;6.10;99.90;;;;;;5074044;28;20671;-71
2022/02/23 01:14:47;;;;;;;15.93;3.57;;;6.20;99.90;;;;;;5074300;28;20637;-71
2022/02/23 01:17:14;;;;;;;18.00;2.97;;;6.30;1.00;;;;;;5072927;28;20207;-70
2022/02/23 01:19:41;;;;;;;15.30;3.00;;;6.40;1.00;;;;;;5073979;28;20205;-70
2022/02/23 01:22:08;;;;;;;12.50;2.80;;;6.50;1.00;;;;;;5072802;28;20194;-70
2022/02/23 01:24:35;;;;;;;15.30;3.70;;;6.40;1.00;;;;;;5074199;28;20213;-70
2022/02/23 01:27:02;;;;;;;19.27;3.13;;;6.40;1.00;;;;;;5074256;28;20220;-70
2022/02/23 01:29:29;;;;;;;12.10;2.70;;;6.50;1.00;;;;;;5064104;28;20211;-70
2022/02/23 01:31:57;;;;;;;11.87;3.23;;;6.60;1.00;;;;;;5073703;28;20195;-70
2022/02/23 01:34:24;;;;;;;14.67;3.10;;;6.60;1.00;;;;;;5074089;28;20226;-71
2022/02/23 01:36:51;;;;;;;15.00;3.83;;;6.50;1.00;;;;;;5073496;28;20671;-70
2022/02/23 01:39:18;;;;;;;17.93;2.90;;;6.50;1.00;;;;;;5073906;28;20700;-70
2022/02/23 01:41:45;;;;;;;16.87;3.33;;;6.50;1.00;;;;;;5073554;28;20199;-70
2022/02/23 01:44:12;;;;;;;15.03;2.77;;;6.60;1.00;;;;;;5073811;28;20277;-70
2022/02/23 01:46:39;;;;;;;18.20;2.90;;;6.60;1.00;;;;;;5073079;28;20199;-70
2022/02/23 01:49:07;;;;;;;16.50;3.27;;;6.60;1.00;;;;;;5073613;28;20715;-70
2022/02/23 01:51:36;;;;;;;18.13;3.23;;;6.60;1.00;;;;;;5073827;28;20213;-71
2022/02/23 01:54:03;;;;;;;19.20;4.50;;;6.50;1.00;;;;;;5073638;28;20226;-71
2022/02/23 01:56:30;;;;;;;18.97;3.10;;;6.50;1.00;;;;;;5072686;28;20630;-71
2022/02/23 01:58:57;;;;;;;16.67;2.90;;;6.60;1.00;;;;;;5073078;28;20194;-70
2022/02/23 02:01:24;;;;;;;11.87;2.70;;;6.60;1.00;;;;;;5072885;28;20289;-70
2022/02/23 02:03:51;;;;;;;18.97;3.27;;;6.60;1.00;;;;;;5072876;28;20190;-70
2022/02/23 02:06:19;;;;;;;18.23;3.40;;;6.60;1.00;;;;;;5072719;28;20201;-70
2022/02/23 02:08:46;;;;;;;12.93;2.87;;;6.60;1.00;;;;;;5073641;28;20667;-70
2022/02/23 02:11:13;;;;;;;24.37;3.40;;;6.60;99.90;;;;;;5073012;28;20632;-70
2022/02/23 02:13:40;;;;;;;17.33;2.77;;;6.60;99.90;;;;;;5073215;28;20229;-70
2022/02/23 02:16:07;;;;;;;17.50;3.40;;;6.60;99.90;;;;;;5073005;28;20297;-71
2022/02/23 02:18:34;;;;;;;14.47;2.83;;;6.60;99.90;;;;;;5072477;28;20208;-70
2022/02/23 02:21:01;;;;;;;15.73;3.00;;;6.60;99.90;;;;;;5073321;28;20194;-70
2022/02/23 02:23:29;;;;;;;10.40;2.70;;;6.60;99.90;;;;;;5072649;28;20682;-70
2022/02/23 02:25:56;;;;;;;12.27;3.17;;;6.60;99.90;;;;;;5072382;28;20572;-70
2022/02/23 02:28:23;;;;;;;19.97;3.80;;;6.60;99.90;;;;;;5072902;28;20213;-70
2022/02/23 02:30:50;;;;;;;13.33;2.93;;;6.60;99.90;;;;;;5070861;28;20202;-70
2022/02/23 02:33:17;;;;;;;14.47;2.73;;;6.60;99.90;;;;;;5073134;28;20214;-70
2022/02/23 02:35:43;;;;;;;17.83;3.97;;;6.60;99.90;;;;;;5072416;28;20218;-70
2022/02/23 02:38:11;;;;;;;16.07;3.63;;;6.50;1.00;;;;;;5072795;28;20563;-70
2022/02/23 02:40:40;;;;;;;16.73;2.87;;;6.50;1.00;;;;;;5072772;28;20210;-70
2022/02/23 02:43:08;;;;;;;14.37;3.07;;;6.50;1.00;;;;;;5072888;28;20700;-70
2022/02/23 02:45:35;;;;;;;19.00;3.00;;;6.40;1.00;;;;;;5072786;28;20651;-70
2022/02/23 02:48:03;;;;;;;20.87;3.93;;;6.40;1.00;;;;;;5072108;28;20206;-70
2022/02/23 02:50:30;;;;;;;15.30;2.60;;;6.30;1.00;;;;;;5072548;28;20278;-71
2022/02/23 02:52:57;;;;;;;15.37;3.00;;;6.30;1.00;;;;;;5072096;28;20208;-70
2022/02/23 02:55:25;;;;;;;15.60;2.87;;;6.30;1.00;;;;;;5071566;28;20736;-70
2022/02/23 02:57:53;;;;;;;17.63;2.97;;;6.30;1.00;;;;;;5071944;28;20212;-70
2022/02/23 03:00:20;;;;;;;16.80;2.83;;;6.20;1.00;;;;;;5072363;28;20281;-70
2022/02/23 03:02:47;;;;;;;11.37;2.43;;;6.20;1.00;;;;;;5072565;28;20201;-70
2022/02/23 03:05:14;;;;;;;21.30;3.73;;;6.20;1.00;;;;;;5071710;28;20636;-67
2022/02/23 03:07:41;;;;;;;13.50;2.53;;;6.20;1.00;;;;;;5072011;28;20202;-67
2022/02/23 03:10:08;;;;;;;15.73;3.20;;;6.20;1.00;;;;;;5072215;28;20289;-67
2022/02/23 03:12:35;;;;;;;13.43;2.10;;;6.20;1.00;;;;;;5059366;28;20680;-67
2022/02/23 03:15:05;;;;;;;11.23;2.60;;;6.20;1.00;;;;;;5070852;28;20226;-67
2022/02/23 03:17:32;;;;;;;16.33;2.80;;;6.20;1.00;;;;;;5071473;28;20755;-67
2022/02/23 03:19:59;;;;;;;15.50;2.60;;;6.30;1.00;;;;;;5071086;28;20195;-67
2022/02/23 03:22:26;;;;;;;15.07;3.17;;;6.30;1.00;;;;;;5071463;28;20636;-67
2022/02/23 03:24:53;;;;;;;11.93;2.80;;;6.30;1.00;;;;;;5071839;28;20675;-67
2022/02/23 03:27:20;;;;;;;15.67;2.53;;;6.30;1.00;;;;;;5071693;28;20675;-67
2022/02/23 03:29:47;;;;;;;12.27;2.90;;;6.20;1.00;;;;;;5071003;28;20656;-67
2022/02/23 03:32:15;;;;;;;10.47;2.37;;;6.20;1.00;;;;;;5071087;28;20248;-67
2022/02/23 03:34:42;;;;;;;15.50;2.73;;;6.30;1.00;;;;;;5071134;28;20214;-67
2022/02/23 03:37:09;;;;;;;11.33;2.73;;;6.20;1.00;;;;;;5071546;28;20670;-67
2022/02/23 03:39:37;;;;;;;13.97;2.70;;;6.20;1.00;;;;;;5072079;28;20205;-67
2022/02/23 03:42:04;;;;;;;14.13;3.00;;;6.30;99.90;;;;;;5070927;28;20572;-67
2022/02/23 03:44:31;;;;;;;17.63;2.70;;;6.30;99.90;;;;;;5071962;28;20213;-67
2022/02/23 03:46:58;;;;;;;9.07;2.30;;;6.20;1.00;;;;;;5070324;28;20284;-67
2022/02/23 03:49:28;;;;;;;11.03;2.50;;;6.20;1.00;;;;;;5071372;28;20220;-67
2022/02/23 03:51:54;;;;;;;17.83;2.80;;;6.20;1.00;;;;;;5060395;28;20199;-67
2022/02/23 03:54:21;;;;;;;12.50;2.40;;;6.10;1.00;;;;;;5070623;28;20258;-67
2022/02/23 03:56:48;;;;;;;12.33;2.77;;;6.00;1.00;;;;;;5071510;28;20283;-67
2022/02/23 03:59:16;;;;;;;8.57;2.97;;;5.90;1.00;;;;;;5071764;28;20202;-67
2022/02/23 04:01:46;;;;;;;9.50;2.50;;;6.00;1.00;;;;;;5071058;28;20671;-67
2022/02/23 04:04:15;;;;;;;16.03;2.77;;;6.00;1.00;;;;;;5071658;28;20206;-67
2022/02/23 04:06:43;;;;;;;14.77;2.13;;;5.90;1.00;;;;;;5069851;28;20668;-67
2022/02/23 04:09:11;;;;;;;11.13;2.10;;;5.80;1.00;;;;;;5071190;28;20206;-67
2022/02/23 04:11:38;;;;;;;15.77;2.67;;;5.80;1.00;;;;;;5071606;28;20228;-67
2022/02/23 04:14:06;;;;;;;16.00;2.80;;;5.70;1.00;;;;;;5070144;28;20218;-67
2022/02/23 04:16:34;;;;;;;14.73;2.63;;;5.70;1.00;;;;;;5070106;28;20264;-68
2022/02/23 04:19:01;;;;;;;9.33;3.23;;;5.70;1.00;;;;;;5071374;28;20217;-67
2022/02/23 04:21:28;;;;;;;11.53;2.70;;;5.60;4.90;;;;;;5071674;28;20222;-67
2022/02/23 04:23:57;;;;;;;14.67;2.90;;;5.50;99.90;;;;;;5071243;28;20692;-67
2022/02/23 04:26:25;;;;;;;12.33;2.60;;;5.50;99.90;;;;;;5071554;28;20664;-67
2022/02/23 04:28:51;;;;;;;12.33;2.33;;;5.40;99.90;;;;;;5070935;28;20657;-68
2022/02/23 04:31:19;;;;;;;21.10;3.77;;;5.40;99.90;;;;;;5070173;28;20213;-67
2022/02/23 04:33:46;;;;;;;12.87;2.73;;;5.50;99.90;;;;;;5071697;28;20206;-67
2022/02/23 04:36:13;;;;;;;12.20;2.27;;;5.50;48.30;;;;;;5071282;28;20222;-67
2022/02/23 04:38:40;;;;;;;14.57;2.83;;;5.30;60.00;;;;;;5070977;28;20210;-67
2022/02/23 04:41:09;;;;;;;16.07;2.97;;;5.50;1.00;;;;;;5071316;28;20656;-67
2022/02/23 04:43:36;;;;;;;17.37;3.60;;;5.60;1.00;;;;;;5070791;28;20213;-67
2022/02/23 04:46:04;;;;;;;13.40;2.63;;;5.50;1.00;;;;;;5071243;28;20324;-67
2022/02/23 04:48:31;;;;;;;22.57;3.30;;;5.50;1.00;;;;;;5071525;28;20206;-67
2022/02/23 04:50:58;;;;;;;17.10;2.80;;;5.50;1.00;;;;;;5070492;28;20214;-67
2022/02/23 04:53:25;;;;;;;12.20;2.37;;;5.50;1.00;;;;;;5073121;28;20213;-67
2022/02/23 04:55:52;;;;;;;17.20;3.10;;;5.50;1.00;;;;;;5074029;28;20782;-67
2022/02/23 04:58:20;;;;;;;11.83;2.33;;;5.50;1.00;;;;;;5075128;28;20195;-67
2022/02/23 05:00:47;;;;;;;21.63;3.27;;;5.50;1.00;;;;;;5074014;28;20209;-67
2022/02/23 05:03:14;;;;;;;12.00;2.37;;;5.40;1.00;;;;;;5074053;28;20741;-67
2022/02/23 05:05:42;;;;;;;14.30;2.87;;;5.40;99.90;;;;;;5073987;28;20198;-67
2022/02/23 05:08:09;;;;;;;18.87;3.53;;;5.30;1.00;;;;;;5075198;28;20614;-67
2022/02/23 05:10:36;;;;;;;15.93;3.10;;;5.30;1.00;;;;;;5074116;28;20198;-67
2022/02/23 05:13:03;;;;;;;17.27;3.00;;;5.30;1.00;;;;;;5074733;28;20206;-67
2022/02/23 05:15:31;;;;;;;19.23;3.07;;;5.30;1.00;;;;;;5073758;28;20222;-67
2022/02/23 05:17:58;;;;;;;14.80;2.57;;;5.20;1.00;;;;;;5054634;28;20195;-67
2022/02/23 05:20:27;;;;;;;14.80;2.63;;;5.10;99.90;;;;;;5054411;28;20199;-67
2022/02/23 05:22:54;;;;;;;11.13;2.40;;;5.10;1.00;;;;;;5073424;28;20218;-67
2022/02/23 05:25:21;;;;;;;14.77;2.90;;;5.10;1.00;;;;;;5074392;28;20214;-67
2022/02/23 05:27:47;;;;;;;16.27;3.57;;;5.20;99.90;;;;;;5074156;28;20234;-68
2022/02/23 05:30:14;;;;;;;20.07;6.10;;;5.20;99.90;;;;;;5071758;28;20203;-67
2022/02/23 05:32:43;;;;;;;15.30;2.90;;;5.30;1.00;;;;;;5073636;28;20298;-69
2022/02/23 05:35:11;;;;;;;14.57;3.23;;;5.30;1.00;;;;;;5073525;28;20309;-67
2022/02/23 05:37:38;;;;;;;15.00;2.80;;;5.30;1.00;;;;;;5073793;28;20221;-67
2022/02/23 05:40:07;;;;;;;13.57;3.43;;;5.40;1.00;;;;;;5074411;28;20213;-68
2022/02/23 05:42:34;;;;;;;18.07;3.27;;;5.40;1.00;;;;;;5073752;28;20244;-67
2022/02/23 05:45:01;;;;;;;15.03;3.17;;;5.40;1.00;;;;;;5073996;28;20285;-67
2022/02/23 05:47:28;;;;;;;15.77;3.70;;;5.40;1.00;;;;;;5073928;28;20655;-67
2022/02/23 05:49:57;;;;;;;16.03;3.50;;;5.40;1.00;;;;;;5074760;28;20214;-67
2022/02/23 05:52:23;;;;;;;16.23;3.07;;;5.40;1.00;;;;;;5074055;28;20252;-67
2022/02/23 05:54:50;;;;;;;19.97;3.63;;;5.50;1.00;;;;;;5073282;28;20253;-67
2022/02/23 05:57:18;;;;;;;14.13;3.17;;;5.50;1.00;;;;;;5073720;28;20205;-67
2022/02/23 05:59:45;;;;;;;14.60;3.43;;;5.50;1.00;;;;;;5073538;28;20205;-68
2022/02/23 06:02:12;;;;;;;12.37;3.63;;;5.50;1.00;;;;;;5073635;28;20211;-67
2022/02/23 06:04:39;;;;;;;21.57;3.97;;;5.50;1.00;;;;;;5072880;28;20202;-67
2022/02/23 06:07:07;;;;;;;17.17;3.13;;;5.60;21.00;;;;;;5073698;28;20565;-67
2022/02/23 06:09:35;;;;;;;17.47;3.70;;;5.70;51.50;;;;;;5073495;28;20292;-67
2022/02/23 06:12:03;;;;;;;14.80;2.87;;;5.60;99.90;;;;;;5073569;28;20237;-67
2022/02/23 06:14:31;;;;;;;16.13;3.20;;;5.60;99.90;;;;;;5073363;28;20234;-67
2022/02/23 06:16:58;;;;;;;18.93;3.57;;;5.60;36.90;;;;;;5072223;28;20356;-67
2022/02/23 06:19:25;;;;;;;22.40;3.20;;;5.70;1.00;;;;;;5072899;28;20206;-67
2022/02/23 06:21:52;;;;;;;14.43;4.00;;;5.70;1.00;;;;;;5073821;28;20198;-67
2022/02/23 06:24:21;;;;;;;19.53;4.60;;;5.70;1.00;;;;;;5072998;28;20711;-67
2022/02/23 06:26:48;;;;;;;12.13;3.30;;;5.70;1.00;;;;;;5073287;28;20205;-68
2022/02/23 06:29:15;;;;;;;11.90;3.27;;;5.70;1.00;;;;;;5072241;28;20206;-67
2022/02/23 06:31:44;;;;;;;15.30;2.70;;;5.70;1.00;;;;;;5072755;28;20210;-67
2022/02/23 06:34:11;;;;;;;18.40;3.80;;;5.70;1.00;;;;;;5072995;28;20242;-70
2022/02/23 06:36:38;;;;;;;15.13;2.80;;;5.60;1.00;;;;;;5072605;28;20226;-71
2022/02/23 06:39:05;;;;;;;13.23;3.20;;;5.60;1.00;;;;;;5072222;28;20217;-71
2022/02/23 06:41:33;;;;;;;15.83;3.30;;;5.70;1.00;;;;;;5072921;28;20283;-70
2022/02/23 06:44:00;;;;;;;19.90;4.80;;;5.70;1.00;;;;;;5073026;28;20206;-71
2022/02/23 06:46:27;;;;;;;26.43;3.57;;;5.70;1.00;;;;;;5071703;28;20200;-71
2022/02/23 06:48:54;;;;;;;18.70;3.40;;;5.70;1.00;;;;;;5072547;28;20206;-71
2022/02/23 06:51:21;;;;;;;18.17;3.30;;;5.70;1.00;;;;;;5073188;28;20682;-70
2022/02/23 06:53:48;;;;;;;13.67;3.80;;;5.80;1.00;;;;;;5072607;28;20644;-71
2022/02/23 06:56:16;;;;;;;16.30;3.10;;;5.80;1.00;;;;;;5072578;28;20313;-71
2022/02/23 06:58:46;;;;;;;16.00;3.30;;;5.80;1.00;;;;;;5072346;28;20297;-71
2022/02/23 07:01:16;;;;;;;19.17;3.10;;;5.80;1.00;;;;;;5072111;28;20565;-71
2022/02/23 07:03:44;;;;;;;16.77;3.23;;;5.80;1.00;;;;;;5073003;28;20656;-71
2022/02/23 07:06:11;;;;;;;15.70;3.80;;;5.90;1.00;;;;;;5071840;28;20210;-71
2022/02/23 07:08:38;;;;;;;16.53;3.37;;;5.80;1.00;;;;;;5072353;28;20208;-71
2022/02/23 07:11:05;;;;;;;17.83;3.60;;;5.80;1.00;;;;;;5071972;28;20214;-71
2022/02/23 07:13:32;;;;;;;20.13;3.73;;;5.90;1.00;;;;;;5072702;28;20205;-70
2022/02/23 07:16:00;;;;;;;21.33;3.33;;;5.90;1.00;;;;;;5071247;28;20316;-70
2022/02/23 07:18:28;;;;;;;16.83;3.03;;;6.00;1.00;;;;;;5072839;28;20648;-71
2022/02/23 07:20:55;;;;;;;15.13;3.63;;;6.00;1.00;;;;;;5071570;28;20206;-71
2022/02/23 07:23:22;;;;;;;10.87;2.80;;;6.00;1.00;;;;;;5072405;28;20206;-71
2022/02/23 07:25:51;;;;;;;17.83;3.50;;;6.00;1.00;;;;;;5072360;28;20208;-70
2022/02/23 07:28:18;;;;;;;12.47;3.13;;;6.10;1.00;;;;;;5071978;28;20213;-70
2022/02/23 07:30:45;;;;;;;19.47;4.83;;;6.10;1.00;;;;;;5071142;28;20206;-70
2022/02/23 07:33:15;;;;;;;16.70;3.50;;;6.10;1.00;;;;;;5072530;28;20206;-70
2022/02/23 07:35:42;;;;;;;14.47;2.83;;;6.00;1.00;;;;;;5072291;28;20272;-71
2022/02/23 07:38:09;;;;;;;14.00;3.03;;;6.00;1.00;;;;;;5071495;28;20252;-71
2022/02/23 07:40:36;;;;;;;18.73;3.77;;;6.10;1.00;;;;;;5071167;28;20206;-71
2022/02/23 07:43:04;;;;;;;17.93;3.10;;;6.10;1.00;;;;;;5071813;28;20229;-71
2022/02/23 07:45:32;;;;;;;19.30;3.63;;;6.20;1.00;;;;;;5072294;28;20194;-70
2022/02/23 07:48:01;;;;;;;14.70;3.20;;;6.40;1.00;;;;;;5071972;28;20715;-71
2022/02/23 07:50:31;;;;;;;17.50;3.83;;;6.40;1.00;;;;;;5071494;28;20297;-71
2022/02/23 07:52:58;;;;;;;17.97;3.93;;;6.40;99.90;;;;;;5071721;28;20309;-71
2022/02/23 07:55:26;;;;;;;13.57;3.40;;;6.40;99.90;;;;;;5071659;28;20210;-71
2022/02/23 07:57:53;;;;;;;19.50;4.13;;;6.40;99.90;;;;;;5072103;28;20680;-71
2022/02/23 08:00:22;;;;;;;17.90;3.67;;;6.70;99.90;;;;;;5072130;28;20243;-71
2022/02/23 08:02:49;;;;;;;14.70;3.70;;;7.50;3.20;;;;;;5071854;28;20206;-71
2022/02/23 08:05:16;;;;;;;14.23;3.70;;;8.20;99.90;;;;;;5072301;28;20214;-71
2022/02/23 08:07:45;;;;;;;13.23;3.57;;;8.20;99.90;;;;;;5071923;28;20268;-72
2022/02/23 08:10:12;;;;;;;18.93;4.00;;;8.20;1.00;;;;;;5072332;28;20240;-71
2022/02/23 08:12:39;;;;;;;16.43;3.40;;;8.00;1.00;;;;;;5072263;28;20209;-72
2022/02/23 08:20:39;;;;;;;15.00;3.30;;;7.50;1.00;;;;;;5071949;28;20285;-71
2022/02/23 08:23:07;;;;;;;16.23;3.83;;;7.90;1.00;;;;;;5071170;28;20241;-71
2022/02/23 08:25:34;;;;;;;17.87;4.47;;;8.70;1.00;;;;;;5071728;28;20202;-71
2022/02/23 08:28:01;;;;;;;20.20;3.50;;;8.70;1.00;;;;;;5074313;28;20202;-72
2022/02/23 08:30:29;;;;;;;23.33;4.17;;;8.20;1.00;;;;;;5074479;28;20663;-72
2022/02/23 08:33:00;;;;;;;13.20;3.50;;;8.10;99.90;;;;;;5074736;28;20214;-71
2022/02/23 08:35:27;;;;;;;20.27;4.97;;;8.30;1.00;;;;;;5074828;28;20209;-70
2022/02/23 08:37:54;;;;;;;18.07;3.73;;;8.70;1.00;;;;;;5075461;28;20210;-70
2022/02/23 08:40:22;;;;;;;17.53;3.47;;;8.70;99.90;;;;;;5075189;28;20212;-71
2022/02/23 08:42:49;;;;;;;18.37;3.87;;;8.80;99.90;;;;;;5074942;28;20571;-71
2022/02/23 08:45:16;;;;;;;15.07;4.03;;;8.30;1.00;;;;;;5074957;28;20210;-71
2022/02/23 08:47:43;;;;;;;13.63;3.70;;;8.20;1.00;;;;;;5075611;28;20225;-72
2022/02/23 08:50:10;;;;;;;18.00;3.70;;;8.90;99.90;;;;;;5075117;28;20881;-71
2022/02/23 08:52:37;;;;;;;16.77;3.70;;;9.20;99.90;;;;;;5074505;28;20703;-71
2022/02/23 08:55:07;;;;;;;19.53;3.90;;;8.70;99.90;;;;;;5074576;28;20207;-71
2022/02/23 08:57:35;;;;;;;17.30;4.13;;;9.30;99.90;;;;;;5075038;28;20237;-72
2022/02/23 09:00:02;;;;;;;11.27;3.40;;;9.00;99.90;;;;;;5074363;28;20202;-71
2022/02/23 09:02:29;;;;;;;16.40;3.73;;;8.70;99.90;;;;;;5075435;28;20233;-71
2022/02/23 09:04:56;;;;;;;16.30;4.17;;;8.60;99.90;;;;;;5075414;28;20648;-72
2022/02/23 09:07:23;;;;;;;14.70;4.07;;;8.70;99.90;;;;;;5074418;28;20814;-72
2022/02/23 09:09:49;;;;;;;13.00;3.47;;;8.80;99.90;;;;;;5073544;28;20620;-71
2022/02/23 09:12:16;;;;;;;13.43;3.57;;;8.50;99.90;;;;;;5078552;28;20208;-71
2022/02/23 09:14:44;;;;;;;19.30;4.27;;;8.40;1.00;;;;;;5075723;28;20214;-71
2022/02/23 09:17:11;;;;;;;11.73;3.27;;;8.20;1.00;;;;;;5073138;28;20218;-71
2022/02/23 09:19:38;;;;;;;14.13;4.13;;;8.30;1.00;;;;;;5075245;28;20212;-71
2022/02/23 09:22:06;;;;;;;22.90;4.63;;;8.40;1.00;;;;;;5074999;28;20457;-71
2022/02/23 09:24:33;;;;;;;18.73;3.57;;;8.50;1.00;;;;;;5075387;28;20205;-71
2022/02/23 09:27:02;;;;;;;14.23;4.17;;;8.60;99.90;;;;;;5074566;28;20206;-71
2022/02/23 09:29:29;;;;;;;13.23;3.70;;;8.90;99.90;;;;;;5074820;28;20210;-71
2022/02/23 09:31:57;;;;;;;14.27;3.33;;;8.90;99.90;;;;;;5074279;28;20703;-71
2022/02/23 09:34:24;;;;;;;17.20;3.60;;;8.70;99.90;;;;;;5073871;28;20217;-71
2022/02/23 09:36:51;;;;;;;15.83;3.27;;;8.90;99.90;;;;;;5074480;28;20221;-71
2022/02/23 09:39:18;;;;;;;19.20;3.70;;;9.00;99.90;;;;;;5073968;28;20206;-71
2022/02/23 09:41:46;;;;;;;13.07;2.77;;;9.10;61.30;;;;;;5074841;28;20217;-71
2022/02/23 09:44:16;;;;;;;17.13;3.83;;;8.90;1.00;;;;;;5074190;28;20206;-72
2022/02/23 09:46:43;;;;;;;14.63;3.40;;;8.90;1.00;;;;;;5074163;28;20672;-72
2022/02/23 09:49:12;;;;;;;17.07;4.27;;;8.90;1.00;;;;;;5074246;28;20209;-71
2022/02/23 09:51:39;;;;;;;12.40;3.43;;;9.00;1.00;;;;;;5074150;28;20242;-71
2022/02/23 09:54:06;;;;;;;18.17;3.40;;;9.00;1.00;;;;;;5073410;28;20210;-71
2022/02/23 09:56:33;;;;;;;15.53;2.97;;;9.10;1.00;;;;;;5073536;28;20221;-71
2022/02/23 09:59:00;;;;;;;13.40;3.57;;;9.20;1.00;;;;;;5073085;28;20285;-71
2022/02/23 10:01:27;;;;;;;12.00;3.73;;;9.50;1.00;;;;;;5073593;28;20210;-70
2022/02/23 10:03:55;;;;;;;12.27;2.70;;;9.50;1.00;;;;;;5074044;28;20676;-73
2022/02/23 10:06:30;;;;;;;12.20;2.77;;;9.50;91.80;;;;;;5073513;28;20213;-68
2022/02/23 10:09:01;;;;;;;13.37;2.87;;;9.70;99.90;;;;;;5074110;28;20193;-68
2022/02/23 10:11:29;;;;;;;11.10;2.67;;;9.80;99.90;;;;;;5073717;28;20210;-68
2022/02/23 10:13:56;;;;;;;15.23;2.97;;;9.90;1.00;;;;;;5073622;28;20691;-68
2022/02/23 10:16:26;;;;;;;14.60;2.43;;;9.90;1.00;;;;;;5072741;28;20226;-68
2022/02/23 10:19:09;;;;;;;11.07;3.23;;;10.00;1.00;;;;;;5073695;28;20202;-68
2022/02/23 10:21:52;;;;;;;14.43;3.13;;;10.10;1.00;;;;;;5073186;28;20212;-68
2022/02/23 10:24:24;;;;;;;12.70;3.20;;;10.20;1.00;;;;;;5073534;28;20206;-68
2022/02/23 10:27:00;;;;;;;11.70;3.23;;;10.50;1.00;;;;;;5072808;28;20206;-68
2022/02/23 10:29:29;;;;;;;12.80;3.57;;;10.70;1.00;;;;;;5073290;28;20209;-68
2022/02/23 10:31:56;;;;;;;16.47;4.20;;;10.60;1.00;;;;;;5072924;28;20240;-68
2022/02/23 10:34:25;;;;;;;14.20;3.60;;;10.60;1.00;;;;;;5073774;28;20683;-68
2022/02/23 10:37:01;;;;;;;14.27;3.07;;;10.80;1.00;;;;;;5072377;28;20228;-68
2022/02/23 10:39:40;;;;;;;13.17;3.60;;;10.80;1.00;;;;;;5073235;28;20577;-68
2022/02/23 10:42:08;;;;;;;15.87;3.43;;;10.70;1.00;;;;;;5073332;28;20198;-68
2022/02/23 10:44:39;;;;;;;11.10;3.07;;;10.90;1.00;;;;;;5073408;28;20198;-67
2022/02/23 10:47:07;;;;;;;10.20;2.70;;;11.00;99.90;;;;;;5071843;28;20206;-67
2022/02/23 10:49:34;;;;;;;14.60;3.33;;;10.80;1.00;;;;;;5072186;28;20551;-68
2022/02/23 10:52:07;;;;;;;10.67;2.90;;;10.60;1.00;;;;;;5072371;28;20208;-68
2022/02/23 10:54:36;;;;;;;11.30;2.53;;;10.90;1.00;;;;;;5072888;28;20703;-67
2022/02/23 10:57:19;;;;;;;14.83;2.93;;;10.70;1.00;;;;;;5072723;28;20225;-67
2022/02/23 10:59:46;;;;;;;13.27;4.40;;;11.10;1.00;;;;;;5073110;28;20623;-67
2022/02/23 11:02:13;;;;;;;11.60;2.90;;;11.30;99.90;;;;;;5072862;28;20723;-68
2022/02/23 11:04:40;;;;;;;11.13;3.03;;;10.90;1.00;;;;;;5072632;28;20209;-68
2022/02/23 11:07:09;;;;;;;11.77;2.57;;;10.80;99.90;;;;;;5071896;28;20190;-67
2022/02/23 11:09:36;;;;;;;12.33;3.17;;;11.20;99.90;;;;;;5072810;28;20568;-68
2022/02/23 11:12:04;;;;;;;10.47;2.70;;;11.10;99.90;;;;;;5072657;28;20263;-68
2022/02/23 11:14:35;;;;;;;18.77;3.13;;;11.10;99.90;;;;;;5071971;28;20713;-68
2022/02/23 11:17:03;;;;;;;9.73;3.70;;;11.30;99.90;;;;;;5070655;28;20249;-68
2022/02/23 11:19:32;;;;;;;9.83;3.10;;;11.30;99.90;;;;;;5072276;28;20247;-68
2022/02/23 11:22:02;;;;;;;12.03;2.43;;;11.40;99.90;;;;;;5072200;28;20576;-68
2022/02/23 11:24:31;;;;;;;13.03;2.90;;;11.60;99.90;;;;;;5072682;28;20213;-68
2022/02/23 11:27:02;;;;;;;12.87;2.80;;;11.70;99.90;;;;;;5072288;28;20224;-68
2022/02/23 11:29:38;;;;;;;8.07;2.43;;;11.70;99.90;;;;;;5071646;28;20267;-67
2022/02/23 11:32:07;;;;;;;13.73;2.50;;;11.80;1.00;;;;;;5071881;28;20209;-68
2022/02/23 11:34:38;;;;;;;11.73;2.43;;;12.10;1.00;;;;;;5072584;28;20668;-68
2022/02/23 11:37:11;;;;;;;15.40;2.93;;;12.10;99.90;;;;;;5071515;28;20226;-68
2022/02/23 11:39:40;;;;;;;8.07;2.17;;;12.00;1.00;;;;;;5072449;28;20761;-68
2022/02/23 11:42:10;;;;;;;8.30;2.63;;;12.00;1.00;;;;;;5071523;28;20210;-68
2022/02/23 11:44:46;;;;;;;14.30;2.83;;;12.00;1.00;;;;;;5072422;28;20536;-68
2022/02/23 11:47:16;;;;;;;12.43;2.93;;;11.70;1.00;;;;;;5071183;28;20198;-68
2022/02/23 11:49:52;;;;;;;6.97;2.27;;;11.80;1.00;;;;;;5071530;28;20294;-68
2022/02/23 11:52:21;;;;;;;9.90;2.57;;;11.60;1.00;;;;;;5071558;28;20674;-68
2022/02/23 11:54:58;;;;;;;10.43;2.60;;;12.00;1.00;;;;;;5072046;28;20206;-68
2022/02/23 11:57:43;;;;;;;9.63;2.37;;;12.20;1.00;;;;;;5071655;28;20222;-67
2022/02/23 12:00:11;;;;;;;10.83;1.90;;;12.30;1.00;;;;;;5071213;28;20206;-68
2022/02/23 12:02:40;;;;;;;8.20;2.57;;;12.10;1.00;;;;;;5076637;28;20216;-68
2022/02/23 12:05:08;;;;;;;7.97;1.87;;;11.80;1.00;;;;;;5079211;28;20545;-67
2022/02/23 12:07:49;;;;;;;10.00;2.40;;;11.90;1.00;;;;;;5077703;28;20198;-68
2022/02/23 12:10:26;;;;;;;8.77;2.10;;;12.30;1.00;;;;;;5079030;28;20205;-72
2022/02/23 12:12:53;;;;;;;6.73;1.80;;;12.50;1.00;;;;;;5077676;28;20201;-71
2022/02/23 12:15:33;;;;;;;6.03;1.67;;;12.60;1.00;;;;;;5065431;28;20275;-72
2022/02/23 12:18:02;;;;;;;9.53;2.30;;;12.50;1.00;;;;;;5075774;28;20275;-71
2022/02/23 12:20:52;;;;;;;5.73;1.93;;;12.70;1.00;;;;;;5076957;28;20202;-70
2022/02/23 12:23:38;;;;;;;7.60;1.90;;;12.70;1.00;;;;;;5077708;28;20279;-73
2022/02/23 12:26:28;;;;;;;6.43;2.23;;;12.80;1.00;;;;;;5077178;28;20202;-74
2022/02/23 12:28:58;;;;;;;8.37;1.97;;;12.70;1.00;;;;;;5074168;28;20279;-72
2022/02/23 12:31:29;;;;;;;10.40;2.20;;;12.70;1.00;;;;;;5076941;28;20701;-68
2022/02/23 12:34:04;;;;;;;9.10;2.47;;;12.80;99.90;;;;;;5077782;28;20206;-68
2022/02/23 12:36:40;;;;;;;10.00;2.50;;;12.80;1.00;;;;;;5076234;28;20209;-69
2022/02/23 12:39:11;;;;;;;6.80;2.73;;;12.70;1.00;;;;;;5077664;28;20194;-69
2022/02/23 12:41:41;;;;;;;6.27;1.80;;;12.90;99.90;;;;;;5076687;28;20256;-69
2022/02/23 12:44:10;;;;;;;6.13;1.50;;;12.70;99.90;;;;;;5077659;28;20194;-69
2022/02/23 12:46:40;;;;;;;7.50;1.70;;;12.90;99.90;;;;;;5077085;28;20539;-69
2022/02/23 12:49:08;;;;;;;7.53;2.07;;;13.50;99.90;;;;;;5076929;28;20202;-69
2022/02/23 12:51:36;;;;;;;7.87;2.20;;;12.90;99.90;;;;;;5076473;28;20741;-71
2022/02/23 12:54:06;;;;;;;5.07;1.83;;;13.30;99.90;;;;;;5077220;28;20225;-69
2022/02/23 12:56:40;;;;;;;5.33;1.93;;;13.30;99.90;;;;;;5077339;28;20248;-69
2022/02/23 12:59:09;;;;;;;7.40;2.10;;;12.80;99.90;;;;;;5076744;28;20226;-69
2022/02/23 13:01:40;;;;;;;9.40;2.37;;;14.70;99.90;;;;;;5076490;28;20210;-69
2022/02/23 13:04:09;;;;;;;7.60;1.97;;;13.50;99.90;;;;;;5077646;28;20234;-70